Saga Sapphire — 9HOF8 — position and weather

sailwx.info

Track history (hours):
 
Tides and Currents Weather Stations Pressure Air Temp Water Temp Dewpoint Dewpoint Depression Visibility Wind Speed Wind Dir Waves Ship Positions

Saga Sapphire

Last reported at 2017-Mar-23 02:29 UTC. Time now 2017-Mar-23 12:24 UTC.
Position N 36°13' W 004°57'.

Length 200 m; draft 8.3 m.

Type: Ship. MMSI: 256208000.

Date/timePositionNaut miles runAvg speedWind from/ knotsBaromVisibWave heightAir tempDewpointWater temp
2017-Mar-23 02:29N 36°13' W 004°57'1212.2
2017-Mar-23 01:32N 36°06' W 005°09'1313.0
2017-Mar-23 00:33N 35°59' W 005°22'1413.8
2017-Mar-22 23:33N 35°55' W 005°38'213 9.6
2017-Mar-22 01:21N 37°38' W 009°30'911.2
2017-Mar-22 00:33N 37°46' W 009°29'1111.2
2017-Mar-21 23:33N 37°58' W 009°28'1111.1
2017-Mar-21 22:33N 38°09' W 009°26'1111.2
2017-Mar-21 21:33N 38°20' W 009°24'1111.2
2017-Mar-21 20:33N 38°31' W 009°23'1211.6
2017-Mar-21 19:33N 38°41' W 009°16'7 7.2
2017-Mar-21 18:33N 38°43' W 009°07'0 0.0
2017-Mar-21 17:33N 38°43' W 009°07'0 0.0
2017-Mar-21 16:29N 38°43' W 009°07'0 0.0
2017-Mar-21 15:32N 38°43' W 009°07'0 0.0
2017-Mar-21 14:33N 38°43' W 009°07'0 0.0
2017-Mar-21 13:32N 38°43' W 009°07'0 0.0
2017-Mar-21 12:33N 38°43' W 009°07'0 0.1
2017-Mar-21 11:33N 38°43' W 009°07'8 7.7
2017-Mar-21 10:33N 38°41' W 009°17'1110.9
2017-Mar-21 09:33N 38°36' W 009°29'1212.4
2017-Mar-21 08:33N 38°43' W 009°42'1414.1
2017-Mar-21 07:33N 38°57' W 009°44'1414.2
2017-Mar-21 06:34N 39°11' W 009°45'1414.1
2017-Mar-21 05:33N 39°25' W 009°47'54213.4
2017-Mar-19 13:07N 47°60' W 005°54'3915.1
2017-Mar-19 10:33N 48°32' W 005°22'1414.4
2017-Mar-19 09:33N 48°43' W 005°08'1413.7
2017-Mar-19 08:31N 48°53' W 004°53'1313.2
2017-Mar-19 07:33N 49°02' W 004°38'1513.4
2017-Mar-19 06:24N 49°14' W 004°23'1814.0
2017-Mar-19 05:07N 49°26' W 004°03'814.7
2017-Mar-19 04:33N 49°32' W 003°54'1615.0
2017-Mar-19 03:29N 49°43' W 003°37'1415.0
2017-Mar-19 02:33N 49°54' W 003°22'1514.6
2017-Mar-19 01:34N 50°04' W 003°07'1413.6
2017-Mar-19 00:33N 50°12' W 002°50'3812.8
2017-Mar-18 21:33N 50°30' W 001°56'1413.5
2017-Mar-18 20:33N 50°37' W 001°39'1413.5
2017-Mar-18 19:33N 50°45' W 001°22'7 7.2
2017-Mar-18 18:33N 50°53' W 001°23'2 1.7
2017-Mar-18 17:31N 50°54' W 001°25'0 0.0
2017-Mar-18 16:31N 50°54' W 001°25'0 0.0
2017-Mar-18 15:31N 50°54' W 001°25'0 0.0
2017-Mar-18 14:31N 50°54' W 001°25'0 0.0
2017-Mar-18 13:31N 50°54' W 001°25'0 0.0
2017-Mar-18 12:28N 50°54' W 001°25'0 0.0
2017-Mar-18 11:28N 50°54' W 001°25'0 0.0
2017-Mar-18 10:28N 50°54' W 001°25'0 0.0
2017-Mar-18 09:31N 50°54' W 001°25'0 0.0
2017-Mar-18 08:28N 50°54' W 001°25'0 0.0
2017-Mar-18 07:29N 50°54' W 001°25'3 3.6
2017-Mar-18 06:33N 50°51' W 001°21'7 6.8
2017-Mar-18 05:34N 50°46' W 001°15'1211.8
2017-Mar-18 04:34N 50°40' W 000°59'1010.1
2017-Mar-18 03:31N 50°32' W 001°09'2010.0
2017-Mar-18 01:32N 50°25' W 001°38'3411.2
2017-Mar-17 22:29N 50°17' W 002°30'1111.5
2017-Mar-17 21:34N 50°14' W 002°46'1111.2
2017-Mar-17 20:33N 50°11' W 003°03'1110.8
2017-Mar-17 19:34N 50°08' W 003°19'1010.2
2017-Mar-17 18:33N 50°06' W 003°35'1211.3
2017-Mar-17 17:32N 50°06' W 003°53'1712.5
2017-Mar-17 16:10N 49°56' W 004°14'7012.5
2017-Mar-17 10:33N 48°53' W 005°03'1212.5
2017-Mar-17 09:34N 48°42' W 005°11'1312.8
2017-Mar-17 08:32N 48°31' W 005°23'1313.2
2017-Mar-17 07:33N 48°20' W 005°32'  
2017-Mar-14 02:00N 41°00' W 018°48'1124.3 340 / 291036.610.8 13.811.414.0
2017-Mar-14 01:33N 40°58' W 019°02'1616.0
2017-Mar-14 00:34N 40°52' W 019°21'1615.8
2017-Mar-13 23:33N 40°47' W 019°41'1615.8
2017-Mar-13 22:33N 40°41' W 020°00'1615.9
2017-Mar-13 21:33N 40°35' W 020°20'916.5
2017-Mar-13 21:00N 40°30' W 020°30'716.5 030 / 151038.810.8 14.011.8
2017-Mar-13 20:33N 40°29' W 020°39'1616.1
2017-Mar-13 19:33N 40°23' W 020°59'1616.3
2017-Mar-13 18:33N 40°17' W 021°19'1616.5
2017-Mar-13 17:33N 40°11' W 021°39'1616.4
2017-Mar-13 16:34N 40°06' W 021°59'1616.2
2017-Mar-13 15:33N 39°60' W 022°19'1616.3
2017-Mar-13 14:33N 39°54' W 022°39'1716.6
2017-Mar-13 13:33N 39°48' W 022°59'1616.4
2017-Mar-13 12:33N 39°42' W 023°18'1616.4
2017-Mar-13 11:33N 39°36' W 023°38'1716.4
2017-Mar-13 10:32N 39°30' W 023°58'1616.1
2017-Mar-13 09:34N 39°24' W 024°18'1616.0
2017-Mar-13 08:33N 39°18' W 024°37'1615.9
2017-Mar-13 07:33N 39°12' W 024°56'1615.8
2017-Mar-13 06:33N 39°07' W 025°15'1615.9
2017-Mar-13 05:33N 39°01' W 025°34'1716.2
2017-Mar-13 04:32N 38°55' W 025°54'1616.2
2017-Mar-13 03:33N 38°49' W 026°13'1716.5
2017-Mar-13 02:33N 38°43' W 026°32'  
Track history (hours):
 
Tides and Currents Weather Stations Pressure Air Temp Water Temp Dewpoint Dewpoint Depression Visibility Wind Speed Wind Dir Waves Ship Positions

Saga Sapphire

Last reported at 2017-Mar-23 02:29 UTC. Time now 2017-Mar-23 12:24 UTC.
Position N 36°13' W 004°57'.

Length 200 m; draft 8.3 m.

Type: Ship. MMSI: 256208000.

Date/timePositionNaut miles runAvg speedWind from/ knotsBaromVisibWave heightAir tempDewpointWater temp
2017-Mar-23 02:29N 36°13' W 004°57'1212.2
2017-Mar-23 01:32N 36°06' W 005°09'1313.0
2017-Mar-23 00:33N 35°59' W 005°22'1413.8
2017-Mar-22 23:33N 35°55' W 005°38'213 9.6
2017-Mar-22 01:21N 37°38' W 009°30'911.2
2017-Mar-22 00:33N 37°46' W 009°29'1111.2
2017-Mar-21 23:33N 37°58' W 009°28'1111.1
2017-Mar-21 22:33N 38°09' W 009°26'1111.2
2017-Mar-21 21:33N 38°20' W 009°24'1111.2
2017-Mar-21 20:33N 38°31' W 009°23'1211.6
2017-Mar-21 19:33N 38°41' W 009°16'7 7.2
2017-Mar-21 18:33N 38°43' W 009°07'0 0.0
2017-Mar-21 17:33N 38°43' W 009°07'0 0.0
2017-Mar-21 16:29N 38°43' W 009°07'0 0.0
2017-Mar-21 15:32N 38°43' W 009°07'0 0.0
2017-Mar-21 14:33N 38°43' W 009°07'0 0.0
2017-Mar-21 13:32N 38°43' W 009°07'0 0.0
2017-Mar-21 12:33N 38°43' W 009°07'0 0.1
2017-Mar-21 11:33N 38°43' W 009°07'8 7.7
2017-Mar-21 10:33N 38°41' W 009°17'1110.9
2017-Mar-21 09:33N 38°36' W 009°29'1212.4
2017-Mar-21 08:33N 38°43' W 009°42'1414.1
2017-Mar-21 07:33N 38°57' W 009°44'1414.2
2017-Mar-21 06:34N 39°11' W 009°45'1414.1
2017-Mar-21 05:33N 39°25' W 009°47'54213.4
2017-Mar-19 13:07N 47°60' W 005°54'3915.1
2017-Mar-19 10:33N 48°32' W 005°22'1414.4
2017-Mar-19 09:33N 48°43' W 005°08'1413.7
2017-Mar-19 08:31N 48°53' W 004°53'1313.2
2017-Mar-19 07:33N 49°02' W 004°38'1513.4
2017-Mar-19 06:24N 49°14' W 004°23'1814.0
2017-Mar-19 05:07N 49°26' W 004°03'814.7
2017-Mar-19 04:33N 49°32' W 003°54'1615.0
2017-Mar-19 03:29N 49°43' W 003°37'1415.0
2017-Mar-19 02:33N 49°54' W 003°22'1514.6
2017-Mar-19 01:34N 50°04' W 003°07'1413.6
2017-Mar-19 00:33N 50°12' W 002°50'3812.8
2017-Mar-18 21:33N 50°30' W 001°56'1413.5
2017-Mar-18 20:33N 50°37' W 001°39'1413.5
2017-Mar-18 19:33N 50°45' W 001°22'7 7.2
2017-Mar-18 18:33N 50°53' W 001°23'2 1.7
2017-Mar-18 17:31N 50°54' W 001°25'0 0.0
2017-Mar-18 16:31N 50°54' W 001°25'0 0.0
2017-Mar-18 15:31N 50°54' W 001°25'0 0.0
2017-Mar-18 14:31N 50°54' W 001°25'0 0.0
2017-Mar-18 13:31N 50°54' W 001°25'0 0.0
2017-Mar-18 12:28N 50°54' W 001°25'0 0.0
2017-Mar-18 11:28N 50°54' W 001°25'0 0.0
2017-Mar-18 10:28N 50°54' W 001°25'0 0.0
2017-Mar-18 09:31N 50°54' W 001°25'0 0.0
2017-Mar-18 08:28N 50°54' W 001°25'0 0.0
2017-Mar-18 07:29N 50°54' W 001°25'3 3.6
2017-Mar-18 06:33N 50°51' W 001°21'7 6.8
2017-Mar-18 05:34N 50°46' W 001°15'1211.8
2017-Mar-18 04:34N 50°40' W 000°59'1010.1
2017-Mar-18 03:31N 50°32' W 001°09'2010.0
2017-Mar-18 01:32N 50°25' W 001°38'3411.2
2017-Mar-17 22:29N 50°17' W 002°30'1111.5
2017-Mar-17 21:34N 50°14' W 002°46'1111.2
2017-Mar-17 20:33N 50°11' W 003°03'1110.8
2017-Mar-17 19:34N 50°08' W 003°19'1010.2
2017-Mar-17 18:33N 50°06' W 003°35'1211.3
2017-Mar-17 17:32N 50°06' W 003°53'1712.5
2017-Mar-17 16:10N 49°56' W 004°14'7012.5
2017-Mar-17 10:33N 48°53' W 005°03'1212.5
2017-Mar-17 09:34N 48°42' W 005°11'1312.8
2017-Mar-17 08:32N 48°31' W 005°23'1313.2
2017-Mar-17 07:33N 48°20' W 005°32'  
2017-Mar-14 02:00N 41°00' W 018°48'1124.3 340 / 291036.610.8 13.811.414.0
2017-Mar-14 01:33N 40°58' W 019°02'1616.0
2017-Mar-14 00:34N 40°52' W 019°21'1615.8
2017-Mar-13 23:33N 40°47' W 019°41'1615.8
2017-Mar-13 22:33N 40°41' W 020°00'1615.9
2017-Mar-13 21:33N 40°35' W 020°20'916.5
2017-Mar-13 21:00N 40°30' W 020°30'716.5 030 / 151038.810.8 14.011.8
2017-Mar-13 20:33N 40°29' W 020°39'1616.1
2017-Mar-13 19:33N 40°23' W 020°59'1616.3
2017-Mar-13 18:33N 40°17' W 021°19'1616.5
2017-Mar-13 17:33N 40°11' W 021°39'1616.4
2017-Mar-13 16:34N 40°06' W 021°59'1616.2
2017-Mar-13 15:33N 39°60' W 022°19'1616.3
2017-Mar-13 14:33N 39°54' W 022°39'1716.6
2017-Mar-13 13:33N 39°48' W 022°59'1616.4
2017-Mar-13 12:33N 39°42' W 023°18'1616.4
2017-Mar-13 11:33N 39°36' W 023°38'1716.4
2017-Mar-13 10:32N 39°30' W 023°58'1616.1
2017-Mar-13 09:34N 39°24' W 024°18'1616.0
2017-Mar-13 08:33N 39°18' W 024°37'1615.9
2017-Mar-13 07:33N 39°12' W 024°56'1615.8
2017-Mar-13 06:33N 39°07' W 025°15'1615.9
2017-Mar-13 05:33N 39°01' W 025°34'1716.2
2017-Mar-13 04:32N 38°55' W 025°54'1616.2
2017-Mar-13 03:33N 38°49' W 026°13'1716.5
2017-Mar-13 02:33N 38°43' W 026°32'  

Dump ship's entire track history